sensor_id;sensor_type;location;lat;lon;timestamp;P1;durP1;ratioP1;P2;durP2;ratioP2
21743;SDS011;11034;48.556;9.342;2022-10-22T05:28:56;0.52;;;0.47;;
21743;SDS011;11034;48.556;9.342;2022-10-22T05:35:05;2.60;;;0.65;;
21743;SDS011;11034;48.556;9.342;2022-10-22T05:43:01;0.95;;;0.50;;
21743;SDS011;11034;48.556;9.342;2022-10-22T05:46:50;1.67;;;0.60;;
21743;SDS011;11034;48.556;9.342;2022-10-22T05:49:20;2.05;;;0.60;;
21743;SDS011;11034;48.556;9.342;2022-10-22T05:51:50;2.70;;;0.50;;
21743;SDS011;11034;48.556;9.342;2022-10-22T05:54:19;1.05;;;0.65;;
21743;SDS011;11034;48.556;9.342;2022-10-22T05:56:47;1.40;;;0.50;;
21743;SDS011;11034;48.556;9.342;2022-10-22T05:59:24;0.80;;;0.52;;
21743;SDS011;11034;48.556;9.342;2022-10-22T06:02:27;0.80;;;0.50;;
21743;SDS011;11034;48.556;9.342;2022-10-22T06:04:55;1.85;;;0.60;;
21743;SDS011;11034;48.556;9.342;2022-10-22T06:07:23;0.68;;;0.60;;
21743;SDS011;11034;48.556;9.342;2022-10-22T06:10:19;1.20;;;0.50;;
21743;SDS011;11034;48.556;9.342;2022-10-22T06:13:35;1.75;;;0.60;;
21743;SDS011;11034;48.556;9.342;2022-10-22T06:17:11;1.48;;;0.50;;
21743;SDS011;11034;48.556;9.342;2022-10-22T06:19:51;0.90;;;0.60;;
21743;SDS011;11034;48.556;9.342;2022-10-22T06:22:37;2.47;;;0.60;;
21743;SDS011;11034;48.556;9.342;2022-10-22T06:32:41;1.48;;;0.68;;
21743;SDS011;11034;48.556;9.342;2022-10-22T06:35:23;0.90;;;0.80;;
21743;SDS011;11034;48.556;9.342;2022-10-22T06:38:34;2.65;;;0.80;;
21743;SDS011;11034;48.556;9.342;2022-10-22T06:41:03;2.05;;;0.80;;
21743;SDS011;11034;48.556;9.342;2022-10-22T06:43:31;0.85;;;0.80;;
21743;SDS011;11034;48.556;9.342;2022-10-22T06:46:01;1.92;;;0.82;;
21743;SDS011;11034;48.556;9.342;2022-10-22T06:48:35;2.45;;;0.70;;
21743;SDS011;11034;48.556;9.342;2022-10-22T06:51:05;1.77;;;0.75;;
21743;SDS011;11034;48.556;9.342;2022-10-22T06:53:35;1.08;;;0.70;;
21743;SDS011;11034;48.556;9.342;2022-10-22T06:56:03;2.85;;;0.75;;
21743;SDS011;11034;48.556;9.342;2022-10-22T06:58:32;2.75;;;0.73;;
21743;SDS011;11034;48.556;9.342;2022-10-22T07:01:01;0.80;;;0.68;;
21743;SDS011;11034;48.556;9.342;2022-10-22T07:03:30;3.35;;;0.75;;
21743;SDS011;11034;48.556;9.342;2022-10-22T07:05:59;3.92;;;0.80;;
21743;SDS011;11034;48.556;9.342;2022-10-22T07:08:34;1.05;;;0.77;;
21743;SDS011;11034;48.556;9.342;2022-10-22T07:11:06;3.28;;;0.80;;
21743;SDS011;11034;48.556;9.342;2022-10-22T07:13:35;0.82;;;0.68;;
21743;SDS011;11034;48.556;9.342;2022-10-22T07:16:03;1.15;;;0.90;;
21743;SDS011;11034;48.556;9.342;2022-10-22T07:18:35;2.83;;;0.95;;
21743;SDS011;11034;48.556;9.342;2022-10-22T07:21:08;1.60;;;0.80;;
21743;SDS011;11034;48.556;9.342;2022-10-22T07:23:38;3.95;;;0.80;;
21743;SDS011;11034;48.556;9.342;2022-10-22T07:26:15;4.10;;;0.75;;
21743;SDS011;11034;48.556;9.342;2022-10-22T07:29:23;1.98;;;0.82;;
21743;SDS011;11034;48.556;9.342;2022-10-22T07:38:54;2.65;;;0.90;;
21743;SDS011;11034;48.556;9.342;2022-10-22T07:41:29;2.22;;;1.25;;
21743;SDS011;11034;48.556;9.342;2022-10-22T08:04:06;3.95;;;0.90;;
21743;SDS011;11034;48.556;9.342;2022-10-22T08:07:35;5.85;;;0.90;;
21743;SDS011;11034;48.556;9.342;2022-10-22T08:10:44;2.80;;;0.65;;
21743;SDS011;11034;48.556;9.342;2022-10-22T08:13:33;0.90;;;0.70;;
21743;SDS011;11034;48.556;9.342;2022-10-22T08:16:13;1.02;;;0.80;;
21743;SDS011;11034;48.556;9.342;2022-10-22T08:18:45;1.75;;;1.00;;
21743;SDS011;11034;48.556;9.342;2022-10-22T08:21:58;2.75;;;0.75;;
21743;SDS011;11034;48.556;9.342;2022-10-22T08:24:29;2.03;;;1.10;;
21743;SDS011;11034;48.556;9.342;2022-10-22T08:26:57;1.65;;;0.88;;
21743;SDS011;11034;48.556;9.342;2022-10-22T08:29:26;2.03;;;0.90;;
21743;SDS011;11034;48.556;9.342;2022-10-22T08:31:59;1.25;;;0.90;;
21743;SDS011;11034;48.556;9.342;2022-10-22T08:34:28;1.98;;;0.98;;
21743;SDS011;11034;48.556;9.342;2022-10-22T08:37:00;1.85;;;0.85;;
21743;SDS011;11034;48.556;9.342;2022-10-22T08:39:36;1.42;;;0.75;;
21743;SDS011;11034;48.556;9.342;2022-10-22T08:45:51;1.10;;;0.80;;
21743;SDS011;11034;48.556;9.342;2022-10-22T08:48:30;1.15;;;0.70;;
21743;SDS011;11034;48.556;9.342;2022-10-22T08:51:40;2.17;;;1.00;;
21743;SDS011;11034;48.556;9.342;2022-10-22T08:54:25;3.22;;;1.45;;
21743;SDS011;11034;48.556;9.342;2022-10-22T08:57:09;2.40;;;1.00;;
21743;SDS011;11034;48.556;9.342;2022-10-22T09:12:10;2.33;;;1.10;;
21743;SDS011;11034;48.556;9.342;2022-10-22T09:14:48;5.22;;;2.45;;
21743;SDS011;11034;48.556;9.342;2022-10-22T09:17:20;4.47;;;2.03;;
21743;SDS011;11034;48.556;9.342;2022-10-22T09:20:23;3.05;;;1.75;;
21743;SDS011;11034;48.556;9.342;2022-10-22T09:23:04;5.78;;;2.22;;
21743;SDS011;11034;48.556;9.342;2022-10-22T09:25:59;2.97;;;1.35;;
21743;SDS011;11034;48.556;9.342;2022-10-22T09:29:05;3.88;;;1.30;;
21743;SDS011;11034;48.556;9.342;2022-10-22T09:51:47;4.03;;;1.30;;
21743;SDS011;11034;48.556;9.342;2022-10-22T10:03:03;3.47;;;1.17;;
21743;SDS011;11034;48.556;9.342;2022-10-22T10:06:07;2.72;;;1.10;;
21743;SDS011;11034;48.556;9.342;2022-10-22T10:12:07;6.43;;;1.25;;
21743;SDS011;11034;48.556;9.342;2022-10-22T10:16:18;2.65;;;1.20;;
21743;SDS011;11034;48.556;9.342;2022-10-22T10:23:19;3.50;;;1.25;;
21743;SDS011;11034;48.556;9.342;2022-10-22T10:26:03;3.90;;;1.20;;
21743;SDS011;11034;48.556;9.342;2022-10-22T10:33:43;7.93;;;1.35;;
21743;SDS011;11034;48.556;9.342;2022-10-22T10:36:37;3.10;;;1.00;;
21743;SDS011;11034;48.556;9.342;2022-10-22T10:39:16;3.78;;;1.00;;
21743;SDS011;11034;48.556;9.342;2022-10-22T10:41:52;6.50;;;1.25;;
21743;SDS011;11034;48.556;9.342;2022-10-22T10:44:33;2.40;;;1.15;;
21743;SDS011;11034;48.556;9.342;2022-10-22T10:47:11;2.17;;;1.00;;
21743;SDS011;11034;48.556;9.342;2022-10-22T10:49:57;3.08;;;1.17;;
21743;SDS011;11034;48.556;9.342;2022-10-22T10:52:43;3.28;;;1.40;;
21743;SDS011;11034;48.556;9.342;2022-10-22T10:55:20;2.42;;;1.45;;
21743;SDS011;11034;48.556;9.342;2022-10-22T10:57:57;3.47;;;1.10;;
21743;SDS011;11034;48.556;9.342;2022-10-22T11:00:38;3.00;;;1.23;;
21743;SDS011;11034;48.556;9.342;2022-10-22T11:03:16;3.78;;;1.17;;
21743;SDS011;11034;48.556;9.342;2022-10-22T11:06:11;3.78;;;1.00;;
21743;SDS011;11034;48.556;9.342;2022-10-22T11:09:13;4.60;;;1.20;;
21743;SDS011;11034;48.556;9.342;2022-10-22T11:19:25;7.35;;;1.10;;
21743;SDS011;11034;48.556;9.342;2022-10-22T12:06:20;3.22;;;1.02;;
21743;SDS011;11034;48.556;9.342;2022-10-22T12:08:56;4.25;;;1.10;;
21743;SDS011;11034;48.556;9.342;2022-10-22T12:11:34;6.57;;;1.10;;
21743;SDS011;11034;48.556;9.342;2022-10-22T12:14:15;3.70;;;1.20;;
21743;SDS011;11034;48.556;9.342;2022-10-22T12:16:46;5.07;;;1.20;;
21743;SDS011;11034;48.556;9.342;2022-10-22T12:19:25;3.58;;;1.00;;
21743;SDS011;11034;48.556;9.342;2022-10-22T12:21:59;2.90;;;1.02;;
21743;SDS011;11034;48.556;9.342;2022-10-22T12:24:38;2.08;;;1.00;;
21743;SDS011;11034;48.556;9.342;2022-10-22T12:27:17;4.07;;;1.00;;
21743;SDS011;11034;48.556;9.342;2022-10-22T12:29:48;4.45;;;1.50;;
21743;SDS011;11034;48.556;9.342;2022-10-22T12:32:22;3.83;;;1.10;;
21743;SDS011;11034;48.556;9.342;2022-10-22T12:34:55;4.20;;;1.40;;
21743;SDS011;11034;48.556;9.342;2022-10-22T12:39:41;2.53;;;1.00;;
21743;SDS011;11034;48.556;9.342;2022-10-22T12:41:41;4.80;;;1.08;;
21743;SDS011;11034;48.556;9.342;2022-10-22T12:44:29;6.30;;;1.00;;
21743;SDS011;11034;48.556;9.342;2022-10-22T12:47:25;4.55;;;1.10;;
21743;SDS011;11034;48.556;9.342;2022-10-22T12:53:36;4.50;;;0.85;;
21743;SDS011;11034;48.556;9.342;2022-10-22T13:00:33;4.13;;;0.98;;
21743;SDS011;11034;48.556;9.342;2022-10-22T13:03:47;3.35;;;1.10;;
21743;SDS011;11034;48.556;9.342;2022-10-22T13:07:36;4.90;;;1.40;;
21743;SDS011;11034;48.556;9.342;2022-10-22T13:10:13;4.35;;;1.30;;
21743;SDS011;11034;48.556;9.342;2022-10-22T13:12:47;2.55;;;1.08;;
21743;SDS011;11034;48.556;9.342;2022-10-22T13:15:35;4.97;;;1.17;;
21743;SDS011;11034;48.556;9.342;2022-10-22T13:18:39;3.25;;;1.02;;
21743;SDS011;11034;48.556;9.342;2022-10-22T13:22:20;2.90;;;1.10;;
21743;SDS011;11034;48.556;9.342;2022-10-22T13:25:56;3.97;;;1.13;;
21743;SDS011;11034;48.556;9.342;2022-10-22T13:33:16;5.38;;;1.42;;
21743;SDS011;11034;48.556;9.342;2022-10-22T13:36:52;2.13;;;1.20;;
21743;SDS011;11034;48.556;9.342;2022-10-22T13:43:57;5.03;;;1.30;;
21743;SDS011;11034;48.556;9.342;2022-10-22T13:50:37;4.20;;;1.50;;
21743;SDS011;11034;48.556;9.342;2022-10-22T13:56:56;2.58;;;1.10;;
21743;SDS011;11034;48.556;9.342;2022-10-22T13:59:29;2.17;;;0.95;;
21743;SDS011;11034;48.556;9.342;2022-10-22T14:02:28;3.22;;;0.93;;
21743;SDS011;11034;48.556;9.342;2022-10-22T14:05:11;6.00;;;0.90;;
21743;SDS011;11034;48.556;9.342;2022-10-22T14:07:39;4.65;;;1.00;;
21743;SDS011;11034;48.556;9.342;2022-10-22T14:10:17;3.13;;;1.35;;
21743;SDS011;11034;48.556;9.342;2022-10-22T14:12:46;4.53;;;1.23;;
21743;SDS011;11034;48.556;9.342;2022-10-22T14:15:21;6.30;;;1.17;;
21743;SDS011;11034;48.556;9.342;2022-10-22T14:17:52;4.65;;;0.90;;
21743;SDS011;11034;48.556;9.342;2022-10-22T14:20:23;2.83;;;1.20;;
21743;SDS011;11034;48.556;9.342;2022-10-22T14:22:59;4.78;;;1.23;;
21743;SDS011;11034;48.556;9.342;2022-10-22T14:25:34;4.07;;;1.17;;
21743;SDS011;11034;48.556;9.342;2022-10-22T14:28:02;5.53;;;1.08;;
21743;SDS011;11034;48.556;9.342;2022-10-22T14:30:35;4.97;;;0.93;;
21743;SDS011;11034;48.556;9.342;2022-10-22T14:33:08;4.15;;;1.20;;
21743;SDS011;11034;48.556;9.342;2022-10-22T14:35:58;6.22;;;1.00;;
21743;SDS011;11034;48.556;9.342;2022-10-22T14:39:24;2.97;;;0.95;;
21743;SDS011;11034;48.556;9.342;2022-10-22T14:42:11;4.32;;;1.08;;
21743;SDS011;11034;48.556;9.342;2022-10-22T14:45:37;3.03;;;1.10;;
21743;SDS011;11034;48.556;9.342;2022-10-22T15:41:51;5.47;;;1.38;;
21743;SDS011;11034;48.556;9.342;2022-10-22T15:48:20;5.03;;;1.52;;
21743;SDS011;11034;48.556;9.342;2022-10-22T15:51:33;9.52;;;1.73;;
21743;SDS011;11034;48.556;9.342;2022-10-22T15:54:45;4.53;;;1.30;;
21743;SDS011;11034;48.556;9.342;2022-10-22T16:01:13;5.07;;;1.33;;
21743;SDS011;11034;48.556;9.342;2022-10-22T16:12:22;2.78;;;1.10;;
21743;SDS011;11034;48.556;9.342;2022-10-22T16:18:33;5.90;;;1.30;;
21743;SDS011;11034;48.556;9.342;2022-10-22T16:21:37;4.90;;;1.48;;
21743;SDS011;11034;48.556;9.342;2022-10-22T16:27:11;5.03;;;1.70;;
21743;SDS011;11034;48.556;9.342;2022-10-22T16:28:43;7.20;;;1.50;;
21743;SDS011;11034;48.556;9.342;2022-10-22T16:32:07;7.32;;;1.70;;
21743;SDS011;11034;48.556;9.342;2022-10-22T16:37:54;5.75;;;1.15;;
21743;SDS011;11034;48.556;9.342;2022-10-22T16:40:25;3.92;;;1.20;;
21743;SDS011;11034;48.556;9.342;2022-10-22T16:42:54;6.15;;;1.60;;
21743;SDS011;11034;48.556;9.342;2022-10-22T16:45:34;6.38;;;1.30;;
21743;SDS011;11034;48.556;9.342;2022-10-22T16:51:22;11.82;;;4.57;;
21743;SDS011;11034;48.556;9.342;2022-10-22T16:52:45;8.32;;;4.55;;
21743;SDS011;11034;48.556;9.342;2022-10-22T16:55:19;3.70;;;2.33;;
21743;SDS011;11034;48.556;9.342;2022-10-22T17:04:55;4.28;;;1.42;;
21743;SDS011;11034;48.556;9.342;2022-10-22T17:18:18;5.95;;;1.33;;
21743;SDS011;11034;48.556;9.342;2022-10-22T17:20:46;3.05;;;1.23;;
21743;SDS011;11034;48.556;9.342;2022-10-22T17:23:16;5.03;;;1.15;;
21743;SDS011;11034;48.556;9.342;2022-10-22T17:25:44;3.85;;;1.10;;
21743;SDS011;11034;48.556;9.342;2022-10-22T17:28:13;3.50;;;1.15;;
21743;SDS011;11034;48.556;9.342;2022-10-22T17:30:41;3.20;;;0.98;;
21743;SDS011;11034;48.556;9.342;2022-10-22T17:33:13;4.32;;;1.20;;
21743;SDS011;11034;48.556;9.342;2022-10-22T17:35:51;6.38;;;1.25;;
21743;SDS011;11034;48.556;9.342;2022-10-22T17:38:21;2.55;;;1.20;;
21743;SDS011;11034;48.556;9.342;2022-10-22T17:40:57;3.67;;;1.33;;
21743;SDS011;11034;48.556;9.342;2022-10-22T17:46:30;5.22;;;1.50;;
21743;SDS011;11034;48.556;9.342;2022-10-22T17:49:07;2.38;;;1.05;;
21743;SDS011;11034;48.556;9.342;2022-10-22T17:51:39;3.67;;;1.27;;
21743;SDS011;11034;48.556;9.342;2022-10-22T17:54:10;6.90;;;1.85;;
21743;SDS011;11034;48.556;9.342;2022-10-22T17:56:39;4.03;;;1.67;;
21743;SDS011;11034;48.556;9.342;2022-10-22T17:59:08;5.18;;;1.80;;
21743;SDS011;11034;48.556;9.342;2022-10-22T18:01:41;4.63;;;1.70;;
21743;SDS011;11034;48.556;9.342;2022-10-22T18:04:14;5.05;;;1.40;;
21743;SDS011;11034;48.556;9.342;2022-10-22T18:06:45;3.00;;;1.42;;
21743;SDS011;11034;48.556;9.342;2022-10-22T18:09:17;5.35;;;1.85;;
21743;SDS011;11034;48.556;9.342;2022-10-22T18:11:45;4.85;;;1.73;;
21743;SDS011;11034;48.556;9.342;2022-10-22T18:14:15;5.45;;;1.95;;
21743;SDS011;11034;48.556;9.342;2022-10-22T18:16:45;4.25;;;1.58;;
21743;SDS011;11034;48.556;9.342;2022-10-22T18:19:17;3.55;;;1.50;;
21743;SDS011;11034;48.556;9.342;2022-10-22T18:21:47;8.60;;;1.83;;
21743;SDS011;11034;48.556;9.342;2022-10-22T18:24:24;7.78;;;1.60;;
21743;SDS011;11034;48.556;9.342;2022-10-22T18:26:53;4.03;;;1.55;;
21743;SDS011;11034;48.556;9.342;2022-10-22T18:29:21;9.23;;;2.10;;
21743;SDS011;11034;48.556;9.342;2022-10-22T18:31:49;8.57;;;1.90;;
21743;SDS011;11034;48.556;9.342;2022-10-22T18:34:19;4.93;;;1.83;;
21743;SDS011;11034;48.556;9.342;2022-10-22T18:36:49;5.68;;;1.60;;
21743;SDS011;11034;48.556;9.342;2022-10-22T18:39:20;5.60;;;2.10;;
21743;SDS011;11034;48.556;9.342;2022-10-22T18:41:50;5.88;;;1.80;;
21743;SDS011;11034;48.556;9.342;2022-10-22T18:44:23;5.97;;;1.73;;
21743;SDS011;11034;48.556;9.342;2022-10-22T18:46:51;5.55;;;2.10;;
21743;SDS011;11034;48.556;9.342;2022-10-22T18:49:21;3.33;;;1.60;;
21743;SDS011;11034;48.556;9.342;2022-10-22T18:51:49;5.45;;;1.85;;
21743;SDS011;11034;48.556;9.342;2022-10-22T18:54:18;6.38;;;2.45;;
21743;SDS011;11034;48.556;9.342;2022-10-22T18:56:49;5.05;;;2.88;;
21743;SDS011;11034;48.556;9.342;2022-10-22T18:59:18;4.60;;;1.88;;
21743;SDS011;11034;48.556;9.342;2022-10-22T19:01:47;7.15;;;1.77;;
21743;SDS011;11034;48.556;9.342;2022-10-22T19:04:16;4.53;;;1.65;;
21743;SDS011;11034;48.556;9.342;2022-10-22T19:06:46;7.03;;;1.70;;
21743;SDS011;11034;48.556;9.342;2022-10-22T19:09:14;4.40;;;1.70;;
21743;SDS011;11034;48.556;9.342;2022-10-22T19:11:43;3.42;;;1.38;;
21743;SDS011;11034;48.556;9.342;2022-10-22T19:14:11;5.25;;;1.83;;
21743;SDS011;11034;48.556;9.342;2022-10-22T19:16:40;7.60;;;1.40;;
21743;SDS011;11034;48.556;9.342;2022-10-22T19:19:09;4.13;;;1.50;;
21743;SDS011;11034;48.556;9.342;2022-10-22T19:21:41;4.68;;;1.75;;
21743;SDS011;11034;48.556;9.342;2022-10-22T19:24:11;3.67;;;1.52;;
21743;SDS011;11034;48.556;9.342;2022-10-22T19:26:43;4.43;;;1.50;;
21743;SDS011;11034;48.556;9.342;2022-10-22T19:29:13;2.80;;;1.33;;
21743;SDS011;11034;48.556;9.342;2022-10-22T19:31:44;5.60;;;1.85;;
21743;SDS011;11034;48.556;9.342;2022-10-22T19:34:18;5.65;;;1.58;;
21743;SDS011;11034;48.556;9.342;2022-10-22T19:36:50;5.75;;;1.42;;
21743;SDS011;11034;48.556;9.342;2022-10-22T19:39:20;4.63;;;1.58;;
21743;SDS011;11034;48.556;9.342;2022-10-22T19:41:58;5.03;;;1.60;;
21743;SDS011;11034;48.556;9.342;2022-10-22T19:44:29;2.40;;;1.30;;
21743;SDS011;11034;48.556;9.342;2022-10-22T19:46:58;4.50;;;1.38;;
21743;SDS011;11034;48.556;9.342;2022-10-22T19:49:26;2.88;;;1.20;;
21743;SDS011;11034;48.556;9.342;2022-10-22T19:52:01;3.75;;;1.50;;
21743;SDS011;11034;48.556;9.342;2022-10-22T19:54:31;5.00;;;1.48;;
21743;SDS011;11034;48.556;9.342;2022-10-22T19:57:04;2.40;;;1.33;;
21743;SDS011;11034;48.556;9.342;2022-10-22T19:59:35;6.28;;;1.75;;
21743;SDS011;11034;48.556;9.342;2022-10-22T20:02:07;3.75;;;1.40;;
21743;SDS011;11034;48.556;9.342;2022-10-22T20:04:38;5.32;;;1.67;;
21743;SDS011;11034;48.556;9.342;2022-10-22T20:07:07;6.65;;;1.58;;
21743;SDS011;11034;48.556;9.342;2022-10-22T20:09:38;2.95;;;1.50;;
21743;SDS011;11034;48.556;9.342;2022-10-22T20:12:06;4.05;;;1.40;;
21743;SDS011;11034;48.556;9.342;2022-10-22T20:14:34;7.97;;;3.00;;
21743;SDS011;11034;48.556;9.342;2022-10-22T20:17:03;4.40;;;1.48;;
21743;SDS011;11034;48.556;9.342;2022-10-22T20:19:32;6.70;;;1.60;;
21743;SDS011;11034;48.556;9.342;2022-10-22T20:22:00;4.80;;;1.20;;
21743;SDS011;11034;48.556;9.342;2022-10-22T20:24:28;2.20;;;1.10;;
21743;SDS011;11034;48.556;9.342;2022-10-22T20:27:04;4.45;;;1.45;;
21743;SDS011;11034;48.556;9.342;2022-10-22T20:29:33;4.10;;;1.80;;
21743;SDS011;11034;48.556;9.342;2022-10-22T20:32:01;3.20;;;1.35;;
21743;SDS011;11034;48.556;9.342;2022-10-22T20:34:34;3.70;;;1.27;;
21743;SDS011;11034;48.556;9.342;2022-10-22T20:37:02;3.38;;;1.17;;
21743;SDS011;11034;48.556;9.342;2022-10-22T20:39:30;2.85;;;1.30;;
21743;SDS011;11034;48.556;9.342;2022-10-22T20:42:07;3.47;;;1.38;;
21743;SDS011;11034;48.556;9.342;2022-10-22T20:44:38;4.38;;;1.20;;
21743;SDS011;11034;48.556;9.342;2022-10-22T20:47:07;3.00;;;1.30;;
21743;SDS011;11034;48.556;9.342;2022-10-22T20:49:35;3.22;;;1.30;;
21743;SDS011;11034;48.556;9.342;2022-10-22T20:52:06;3.88;;;1.48;;
21743;SDS011;11034;48.556;9.342;2022-10-22T20:54:34;3.78;;;1.13;;
21743;SDS011;11034;48.556;9.342;2022-10-22T20:57:11;4.10;;;1.67;;
21743;SDS011;11034;48.556;9.342;2022-10-22T20:59:39;4.50;;;1.10;;
21743;SDS011;11034;48.556;9.342;2022-10-22T21:02:08;3.28;;;1.35;;
21743;SDS011;11034;48.556;9.342;2022-10-22T21:04:39;2.25;;;1.10;;
21743;SDS011;11034;48.556;9.342;2022-10-22T21:07:11;3.40;;;1.10;;
21743;SDS011;11034;48.556;9.342;2022-10-22T21:09:42;3.15;;;1.17;;
21743;SDS011;11034;48.556;9.342;2022-10-22T21:12:11;3.97;;;1.10;;
21743;SDS011;11034;48.556;9.342;2022-10-22T21:14:40;3.35;;;1.27;;
21743;SDS011;11034;48.556;9.342;2022-10-22T21:17:09;4.38;;;1.30;;
21743;SDS011;11034;48.556;9.342;2022-10-22T21:19:40;5.00;;;1.33;;
21743;SDS011;11034;48.556;9.342;2022-10-22T21:22:08;6.68;;;1.52;;
21743;SDS011;11034;48.556;9.342;2022-10-22T21:24:37;6.63;;;1.30;;
21743;SDS011;11034;48.556;9.342;2022-10-22T21:27:07;2.80;;;1.27;;
21743;SDS011;11034;48.556;9.342;2022-10-22T21:29:36;3.72;;;1.30;;
21743;SDS011;11034;48.556;9.342;2022-10-22T21:32:05;3.65;;;1.40;;
21743;SDS011;11034;48.556;9.342;2022-10-22T21:34:36;2.42;;;1.10;;
21743;SDS011;11034;48.556;9.342;2022-10-22T21:37:24;4.00;;;1.40;;
21743;SDS011;11034;48.556;9.342;2022-10-22T21:39:55;2.85;;;1.30;;
21743;SDS011;11034;48.556;9.342;2022-10-22T21:42:23;5.45;;;1.30;;
21743;SDS011;11034;48.556;9.342;2022-10-22T21:44:55;2.58;;;1.35;;
21743;SDS011;11034;48.556;9.342;2022-10-22T21:47:23;5.03;;;1.40;;
21743;SDS011;11034;48.556;9.342;2022-10-22T21:49:51;3.83;;;1.20;;
21743;SDS011;11034;48.556;9.342;2022-10-22T21:52:21;4.22;;;1.20;;
21743;SDS011;11034;48.556;9.342;2022-10-22T21:54:52;1.48;;;0.93;;
21743;SDS011;11034;48.556;9.342;2022-10-22T21:57:25;2.22;;;1.15;;
21743;SDS011;11034;48.556;9.342;2022-10-22T22:00:00;3.38;;;1.00;;
21743;SDS011;11034;48.556;9.342;2022-10-22T22:02:36;2.78;;;1.10;;
21743;SDS011;11034;48.556;9.342;2022-10-22T22:05:07;1.67;;;0.90;;
21743;SDS011;11034;48.556;9.342;2022-10-22T22:07:36;4.50;;;1.08;;
21743;SDS011;11034;48.556;9.342;2022-10-22T22:10:08;2.38;;;0.93;;
21743;SDS011;11034;48.556;9.342;2022-10-22T22:12:56;3.40;;;1.20;;
21743;SDS011;11034;48.556;9.342;2022-10-22T22:15:30;2.08;;;1.00;;
21743;SDS011;11034;48.556;9.342;2022-10-22T22:18:00;1.63;;;1.00;;
21743;SDS011;11034;48.556;9.342;2022-10-22T22:20:30;1.35;;;0.95;;
21743;SDS011;11034;48.556;9.342;2022-10-22T22:23:04;1.90;;;1.10;;
21743;SDS011;11034;48.556;9.342;2022-10-22T22:25:32;4.32;;;1.23;;
21743;SDS011;11034;48.556;9.342;2022-10-22T22:28:03;7.35;;;1.10;;
21743;SDS011;11034;48.556;9.342;2022-10-22T22:30:38;8.05;;;1.23;;
21743;SDS011;11034;48.556;9.342;2022-10-22T22:33:10;3.28;;;1.13;;
21743;SDS011;11034;48.556;9.342;2022-10-22T22:35:39;3.03;;;1.25;;
21743;SDS011;11034;48.556;9.342;2022-10-22T22:38:09;2.45;;;1.27;;
21743;SDS011;11034;48.556;9.342;2022-10-22T22:40:38;2.33;;;1.10;;
21743;SDS011;11034;48.556;9.342;2022-10-22T22:43:07;2.38;;;1.25;;
21743;SDS011;11034;48.556;9.342;2022-10-22T22:45:35;3.33;;;1.17;;
21743;SDS011;11034;48.556;9.342;2022-10-22T22:48:06;2.10;;;1.02;;
21743;SDS011;11034;48.556;9.342;2022-10-22T22:50:34;2.90;;;1.10;;
21743;SDS011;11034;48.556;9.342;2022-10-22T22:53:05;3.28;;;1.30;;
21743;SDS011;11034;48.556;9.342;2022-10-22T22:55:35;3.72;;;0.93;;
21743;SDS011;11034;48.556;9.342;2022-10-22T22:58:04;2.58;;;1.02;;
21743;SDS011;11034;48.556;9.342;2022-10-22T23:00:32;2.28;;;1.00;;
21743;SDS011;11034;48.556;9.342;2022-10-22T23:03:02;3.72;;;1.23;;
21743;SDS011;11034;48.556;9.342;2022-10-22T23:05:30;4.50;;;1.00;;
21743;SDS011;11034;48.556;9.342;2022-10-22T23:08:01;2.13;;;0.95;;
21743;SDS011;11034;48.556;9.342;2022-10-22T23:10:29;4.18;;;1.10;;
21743;SDS011;11034;48.556;9.342;2022-10-22T23:12:57;3.03;;;1.10;;
21743;SDS011;11034;48.556;9.342;2022-10-22T23:15:27;4.03;;;1.20;;
21743;SDS011;11034;48.556;9.342;2022-10-22T23:17:55;3.53;;;1.10;;
21743;SDS011;11034;48.556;9.342;2022-10-22T23:20:29;2.75;;;1.13;;
21743;SDS011;11034;48.556;9.342;2022-10-22T23:23:03;2.53;;;1.20;;
21743;SDS011;11034;48.556;9.342;2022-10-22T23:25:32;4.18;;;1.20;;
21743;SDS011;11034;48.556;9.342;2022-10-22T23:28:00;2.38;;;1.10;;
21743;SDS011;11034;48.556;9.342;2022-10-22T23:30:32;2.70;;;1.10;;
21743;SDS011;11034;48.556;9.342;2022-10-22T23:33:02;5.05;;;1.15;;
21743;SDS011;11034;48.556;9.342;2022-10-22T23:35:37;5.18;;;1.20;;
21743;SDS011;11034;48.556;9.342;2022-10-22T23:38:08;1.20;;;0.95;;
21743;SDS011;11034;48.556;9.342;2022-10-22T23:40:37;6.47;;;1.33;;
21743;SDS011;11034;48.556;9.342;2022-10-22T23:43:08;2.63;;;1.00;;
21743;SDS011;11034;48.556;9.342;2022-10-22T23:45:36;2.72;;;1.10;;
21743;SDS011;11034;48.556;9.342;2022-10-22T23:48:07;3.80;;;1.15;;
21743;SDS011;11034;48.556;9.342;2022-10-22T23:50:36;2.75;;;0.98;;
21743;SDS011;11034;48.556;9.342;2022-10-22T23:53:05;5.30;;;1.10;;
21743;SDS011;11034;48.556;9.342;2022-10-22T23:55:35;3.28;;;1.10;;
21743;SDS011;11034;48.556;9.342;2022-10-22T23:58:03;3.85;;;1.00;;
